createdAt,value
2023-03-07T00:03:02.923Z,5.77
2023-03-07T00:08:06.709Z,5.87
2023-03-07T00:13:10.404Z,4.47
2023-03-07T00:18:15.219Z,5.23
2023-03-07T00:28:21.756Z,5.73
2023-03-07T00:33:26.634Z,6.97
2023-03-07T00:38:30.988Z,3.33
2023-03-07T00:43:35.630Z,5.55
2023-03-07T00:48:41.422Z,4.63
2023-03-07T00:53:45.583Z,6.43
2023-03-07T00:58:49.805Z,3.72
2023-03-07T01:03:56.158Z,4.13
2023-03-07T01:09:01.888Z,3.57
2023-03-07T01:14:07.481Z,3.87
2023-03-07T01:19:14.212Z,3.83
2023-03-07T01:24:18.503Z,5.60
2023-03-07T01:29:22.039Z,4.78
2023-03-07T01:34:26.794Z,3.83
2023-03-07T01:39:30.424Z,3.80
2023-03-07T01:44:59.606Z,4.33
2023-03-07T01:50:09.347Z,3.67
2023-03-07T01:55:16.692Z,4.97
2023-03-07T02:00:26.554Z,3.40
2023-03-07T02:05:35.791Z,4.77
2023-03-07T02:10:40.340Z,5.67
2023-03-07T02:15:44.261Z,3.53
2023-03-07T02:20:59.042Z,4.30
2023-03-07T02:26:09.121Z,4.47
2023-03-07T02:31:14.062Z,3.73
2023-03-07T02:36:21.361Z,5.63
2023-03-07T02:41:29.647Z,2.97
2023-03-07T02:46:34.658Z,5.00
2023-03-07T02:51:38.063Z,4.83
2023-03-07T02:56:41.555Z,3.93
2023-03-07T03:01:46.593Z,5.67
2023-03-07T03:06:50.095Z,4.23
2023-03-07T03:11:53.451Z,5.17
2023-03-07T03:16:58.520Z,5.63
2023-03-07T03:22:02.285Z,7.33
2023-03-07T03:27:06.185Z,4.50
2023-03-07T03:32:11.470Z,9.40
2023-03-07T03:37:15.033Z,5.20
2023-03-07T03:42:18.516Z,4.95
2023-03-07T03:47:23.297Z,3.83
2023-03-07T03:57:29.705Z,4.15
2023-03-07T04:02:34.750Z,5.80
2023-03-07T04:07:38.409Z,4.38
2023-03-07T04:12:42.049Z,5.40
2023-03-07T04:17:46.783Z,5.18
2023-03-07T04:27:53.739Z,5.07
2023-03-07T04:32:58.751Z,6.68
2023-03-07T04:38:02.075Z,4.32
2023-03-07T04:43:06.257Z,6.57
2023-03-07T04:48:11.128Z,5.28
2023-03-07T04:58:18.005Z,8.47
2023-03-07T05:03:25.090Z,5.40
2023-03-07T05:08:28.693Z,5.85
2023-03-07T05:13:32.492Z,5.13
2023-03-07T05:18:37.497Z,7.03
2023-03-07T05:23:41.077Z,4.82
2023-03-07T05:28:44.443Z,4.93
2023-03-07T05:33:49.220Z,6.07
2023-03-07T05:38:54.191Z,5.28
2023-03-07T05:49:03.160Z,6.50
2023-03-07T05:59:13.024Z,6.13
2023-03-07T06:04:18.043Z,8.00
2023-03-07T06:09:22.460Z,7.30
2023-03-07T06:14:25.923Z,5.00
2023-03-07T06:19:31.272Z,6.00
2023-03-07T06:24:34.902Z,7.78
2023-03-07T06:29:38.520Z,5.60
2023-03-07T06:34:43.777Z,7.32
2023-03-07T06:39:47.246Z,10.13
2023-03-07T06:44:50.681Z,6.65
2023-03-07T06:49:55.899Z,4.97
2023-03-07T06:54:59.308Z,5.97
2023-03-07T07:00:02.933Z,7.20
2023-03-07T07:05:09.962Z,5.93
2023-03-07T07:10:13.888Z,7.10
2023-03-07T07:15:17.528Z,7.90
2023-03-07T07:20:22.622Z,6.95
2023-03-07T07:25:26.119Z,5.60
2023-03-07T07:30:29.593Z,6.20
2023-03-07T07:35:34.445Z,6.95
2023-03-07T07:40:38.058Z,6.03
2023-03-07T07:45:41.544Z,7.03
2023-03-07T07:50:47.332Z,6.15
2023-03-07T07:55:50.822Z,5.05
2023-03-07T08:00:54.320Z,8.70
2023-03-07T08:05:59.332Z,21.92
2023-03-07T08:11:02.885Z,13.63
2023-03-07T08:16:11.278Z,7.38
2023-03-07T08:21:16.238Z,6.25
2023-03-07T08:26:19.688Z,7.20
2023-03-07T08:31:25.361Z,6.78
2023-03-07T08:36:30.263Z,7.10
2023-03-07T08:41:33.904Z,8.93
2023-03-07T08:46:37.456Z,7.80
2023-03-07T08:51:42.505Z,10.50
2023-03-07T08:56:48.773Z,7.72
2023-03-07T09:01:52.295Z,8.45
2023-03-07T09:07:00.646Z,8.77
2023-03-07T09:12:05.649Z,8.90
2023-03-07T09:17:09.662Z,20.40
2023-03-07T09:22:14.697Z,9.05
2023-03-07T09:32:21.230Z,15.68
2023-03-07T09:37:26.022Z,8.50
2023-03-07T09:42:38.106Z,8.48
2023-03-07T09:48:00.439Z,9.73
2023-03-07T09:53:06.771Z,12.15
2023-03-07T09:58:19.932Z,12.30
2023-03-07T10:03:32.739Z,12.60
2023-03-07T10:08:38.738Z,11.95
2023-03-07T10:13:55.586Z,7.85
2023-03-07T10:19:11.440Z,9.10
2023-03-07T10:24:33.838Z,7.85
2023-03-07T10:29:46.170Z,9.45
2023-03-07T10:34:56.128Z,8.68
2023-03-07T10:40:04.817Z,10.45
2023-03-07T10:45:13.271Z,7.55
2023-03-07T10:50:33.432Z,6.10
2023-03-07T10:55:43.582Z,5.28
2023-03-07T11:00:58.804Z,8.40
2023-03-07T11:06:02.327Z,7.43
2023-03-07T11:11:07.181Z,7.30
2023-03-07T11:16:20.280Z,6.40
2023-03-07T11:21:30.820Z,6.30
2023-03-07T11:26:41.302Z,7.72
2023-03-07T11:31:54.095Z,9.27
2023-03-07T11:37:03.383Z,7.18
2023-03-07T11:42:17.108Z,7.63
2023-03-07T11:47:33.382Z,7.50
2023-03-07T11:53:04.973Z,7.88
2023-03-07T11:58:34.241Z,8.32
2023-03-07T12:04:01.341Z,9.43
2023-03-07T12:09:30.219Z,7.70
2023-03-07T12:14:43.819Z,7.30
2023-03-07T12:20:20.257Z,7.03
2023-03-07T12:25:26.795Z,8.18
2023-03-07T12:30:44.500Z,7.25
2023-03-07T12:35:53.507Z,6.03
2023-03-07T12:41:03.271Z,8.52
2023-03-07T12:46:16.760Z,8.40
2023-03-07T12:51:26.717Z,7.00
2023-03-07T12:56:39.164Z,7.50
2023-03-07T13:01:49.116Z,6.05
2023-03-07T13:06:55.225Z,7.35
2023-03-07T13:12:33.002Z,7.65
2023-03-07T13:18:02.917Z,7.05
2023-03-07T13:23:25.217Z,6.72
2023-03-07T13:28:53.122Z,7.72
2023-03-07T13:34:18.393Z,5.75
2023-03-07T13:44:42.323Z,7.15
2023-03-07T13:49:47.529Z,5.57
2023-03-07T13:54:52.569Z,4.53
2023-03-07T13:59:57.628Z,5.85
2023-03-07T14:05:04.725Z,5.28
2023-03-07T14:10:22.402Z,6.20
2023-03-07T14:15:33.673Z,6.60
2023-03-07T14:20:57.269Z,7.63
2023-03-07T14:26:10.805Z,5.32
2023-03-07T14:31:25.371Z,4.82
2023-03-07T14:36:32.404Z,6.65
2023-03-07T14:41:46.372Z,6.53
2023-03-07T14:47:01.807Z,6.53
2023-03-07T14:52:07.362Z,6.85
2023-03-07T14:57:20.744Z,7.10
2023-03-07T15:02:24.148Z,6.82
2023-03-07T15:07:28.895Z,12.77
2023-03-07T15:12:32.366Z,6.93
2023-03-07T15:17:43.919Z,6.95
2023-03-07T15:22:49.447Z,5.70
2023-03-07T15:28:00.921Z,6.85
2023-03-07T15:33:06.716Z,6.47
2023-03-07T15:38:17.265Z,7.03
2023-03-07T15:43:29.200Z,11.20
2023-03-07T15:48:43.455Z,5.78
2023-03-07T15:53:57.626Z,7.93
2023-03-07T15:59:04.591Z,7.75
2023-03-07T16:04:08.075Z,7.93
2023-03-07T16:09:14.636Z,7.82
2023-03-07T16:14:25.450Z,10.82
2023-03-07T16:19:29.449Z,7.63
2023-03-07T16:24:34.461Z,8.87
2023-03-07T16:29:38.033Z,6.70
2023-03-07T16:34:43.363Z,7.22
2023-03-07T16:39:49.104Z,7.05
2023-03-07T16:44:53.132Z,9.07
2023-03-07T16:49:56.720Z,7.37
2023-03-07T16:55:01.498Z,7.05
2023-03-07T17:00:08.516Z,7.00
2023-03-07T17:05:17.896Z,8.32
2023-03-07T17:10:23.617Z,7.78
2023-03-07T17:15:31.344Z,7.80
2023-03-07T17:20:35.065Z,7.28
2023-03-07T17:25:40.095Z,8.43
2023-03-07T17:30:45.822Z,7.82
2023-03-07T17:35:49.457Z,6.45
2023-03-07T17:40:56.705Z,7.53
2023-03-07T17:46:00.198Z,6.47
2023-03-07T17:51:04.162Z,7.20
2023-03-07T17:56:09.881Z,9.17
2023-03-07T18:01:15.408Z,7.97
2023-03-07T18:06:20.429Z,8.00
2023-03-07T18:11:25.390Z,6.00
2023-03-07T18:16:28.861Z,11.27
2023-03-07T18:21:32.297Z,7.68
2023-03-07T18:26:37.096Z,7.57
2023-03-07T18:31:40.736Z,8.38
2023-03-07T18:36:44.876Z,10.18
2023-03-07T18:41:50.736Z,9.55
2023-03-07T18:46:54.156Z,7.85
2023-03-07T18:51:57.692Z,11.45
2023-03-07T18:57:02.457Z,11.13
2023-03-07T19:07:09.418Z,10.82
2023-03-07T19:12:14.260Z,11.57
2023-03-07T19:22:26.412Z,7.82
2023-03-07T19:27:32.262Z,13.20
2023-03-07T19:32:35.784Z,9.45
2023-03-07T19:37:39.350Z,10.98
2023-03-07T19:42:44.218Z,9.98
2023-03-07T19:47:47.797Z,12.02
2023-03-07T19:52:51.308Z,13.52
2023-03-07T19:57:56.111Z,13.38
2023-03-07T20:03:00.337Z,12.55
2023-03-07T20:08:03.836Z,12.57
2023-03-07T20:13:09.575Z,13.27
2023-03-07T20:18:13.852Z,16.52
2023-03-07T20:23:17.268Z,13.60
2023-03-07T20:28:22.728Z,18.20
2023-03-07T20:33:26.669Z,12.33
2023-03-07T20:38:30.023Z,11.93
2023-03-07T20:43:35.240Z,13.27
2023-03-07T20:48:39.170Z,13.17
2023-03-07T20:53:42.638Z,13.03
2023-03-07T20:58:47.738Z,13.10
2023-03-07T21:03:52.676Z,14.67
2023-03-07T21:08:56.394Z,12.03
2023-03-07T21:14:01.603Z,18.03
2023-03-07T21:19:07.028Z,13.03
2023-03-07T21:24:12.560Z,14.83
2023-03-07T21:29:17.543Z,14.93
2023-03-07T21:34:21.099Z,14.57
2023-03-07T21:39:25.719Z,18.07
2023-03-07T21:49:34.297Z,20.45
2023-03-07T21:54:37.822Z,19.02
2023-03-07T21:59:42.713Z,17.90
2023-03-07T22:04:46.144Z,17.43
2023-03-07T22:09:49.533Z,15.30
2023-03-07T22:14:54.496Z,15.63
2023-03-07T22:19:57.991Z,16.80
2023-03-07T22:25:01.507Z,16.63
2023-03-07T22:30:10.304Z,14.10
2023-03-07T22:35:13.729Z,14.37
2023-03-07T22:40:17.393Z,16.70
2023-03-07T22:45:22.422Z,18.60
2023-03-07T22:50:26.253Z,21.70
2023-03-07T22:55:29.721Z,18.55
2023-03-07T23:00:34.448Z,18.53
2023-03-07T23:05:38.438Z,15.90
2023-03-07T23:10:41.792Z,20.55
2023-03-07T23:15:46.881Z,18.87
2023-03-07T23:20:50.251Z,24.10
2023-03-07T23:25:53.729Z,18.73
2023-03-07T23:30:58.615Z,22.60
2023-03-07T23:36:02.388Z,20.87
2023-03-07T23:41:06.023Z,20.53
2023-03-07T23:46:12.439Z,24.00
2023-03-07T23:51:16.116Z,27.20
2023-03-07T23:56:19.572Z,26.27
